Time;durP1;ratioP1;P1;durP2;ratioP2;P2;SDS_P1;SDS_P2;PMS_P1;PMS_P2;Temp;Humidity;BMP_temperature;BMP_pressure;BME280_temperature;BME280_humidity;BME280_pressure;Samples;Min_cycle;Max_cycle;Signal;HPM_P1;HPM_P2
2022/08/02 00:00:39;;;;;;;9.00;4.30;;;;;;;21.74;70.62;100284.69;104762;1270;141851;-74
2022/08/02 00:03:08;;;;;;;8.50;4.40;;;;;;;21.72;70.58;100281.58;104792;1268;108821;-74
2022/08/02 00:05:36;;;;;;;10.00;4.20;;;;;;;21.71;70.78;100285.26;104680;1267;139543;-74
2022/08/02 00:08:06;;;;;;;10.20;4.50;;;;;;;21.71;70.80;100285.77;104636;1270;95179;-74
2022/08/02 00:10:34;;;;;;;9.10;4.40;;;;;;;21.69;70.89;100286.29;104679;1270;109689;-75
2022/08/02 00:13:03;;;;;;;9.00;4.20;;;;;;;21.71;70.88;100287.82;104588;1268;139142;-74
2022/08/02 00:15:30;;;;;;;8.00;4.00;;;;;;;21.72;70.64;100289.17;104709;1270;109078;-75
2022/08/02 00:17:58;;;;;;;10.40;4.30;;;;;;;21.70;71.02;100286.39;104512;1269;139345;-75
2022/08/02 00:20:26;;;;;;;7.90;4.50;;;;;;;21.65;70.89;100286.09;104761;1268;95301;-75
2022/08/02 00:22:54;;;;;;;8.70;4.80;;;;;;;21.61;70.97;100289.30;104607;1269;138836;-75
2022/08/02 00:25:22;;;;;;;8.20;4.30;;;;;;;21.57;71.00;100289.94;104731;1270;99328;-75
2022/08/02 00:27:50;;;;;;;8.60;4.00;;;;;;;21.54;71.57;100287.98;104699;1268;109085;-74
2022/08/02 00:30:18;;;;;;;8.60;4.40;;;;;;;21.55;71.25;100283.95;104565;1269;138955;-74
2022/08/02 00:32:46;;;;;;;7.80;4.30;;;;;;;21.53;71.65;100275.77;104734;1268;95686;-74
2022/08/02 00:35:13;;;;;;;7.90;4.40;;;;;;;21.49;71.67;100274.59;104435;1270;138972;-74
2022/08/02 00:37:42;;;;;;;7.00;3.90;;;;;;;21.46;71.67;100279.67;104647;1270;98639;-73
2022/08/02 00:40:10;;;;;;;9.20;4.20;;;;;;;21.52;71.52;100281.05;104641;1270;107699;-75
2022/08/02 00:42:39;;;;;;;8.30;4.70;;;;;;;21.57;71.31;100287.63;104593;1268;138954;-73
2022/08/02 00:45:07;;;;;;;7.80;3.90;;;;;;;21.57;71.29;100292.86;104611;1270;96318;-74
2022/08/02 00:47:35;;;;;;;8.00;4.70;;;;;;;21.61;70.95;100297.43;104367;1269;248786;-75
2022/08/02 00:50:03;;;;;;;7.90;4.50;;;;;;;21.64;70.67;100297.19;104753;1270;99619;-74
2022/08/02 00:52:31;;;;;;;7.90;4.20;;;;;;;21.67;70.86;100295.73;104656;1268;108982;-75
2022/08/02 00:54:59;;;;;;;8.60;4.80;;;;;;;21.58;71.20;100294.02;104530;1269;138957;-73
2022/08/02 00:57:27;;;;;;;7.80;4.70;;;;;;;21.48;71.05;100297.62;104726;1270;96058;-74
2022/08/02 00:59:55;;;;;;;9.60;4.70;;;;;;;21.47;71.28;100297.67;104583;1270;138874;-74
2022/08/02 01:02:23;;;;;;;9.60;4.80;;;;;;;21.46;71.10;100301.20;104728;1270;99473;-74
2022/08/02 01:04:51;;;;;;;8.30;4.40;;;;;;;21.43;71.21;100302.45;104733;1268;108942;-74
2022/08/02 01:07:19;;;;;;;7.50;4.70;;;;;;;21.39;71.64;100304.41;104645;1270;96227;-75
2022/08/02 01:09:47;;;;;;;8.00;4.20;;;;;;;21.35;71.78;100312.10;104759;1268;95235;-74
2022/08/02 01:12:15;;;;;;;9.00;4.60;;;;;;;21.35;71.80;100311.39;104553;1270;139399;-73
2022/08/02 01:14:49;;;;;;;8.40;4.30;;;;;;;21.32;71.58;100312.17;104750;1268;99740;-74
2022/08/02 01:17:30;;;;;;;9.00;4.80;;;;;;;21.30;71.49;100310.52;104562;1268;138861;-75
2022/08/02 01:20:04;;;;;;;8.50;4.50;;;;;;;21.27;71.75;100307.98;104726;1268;95646;-75
2022/08/02 01:22:51;;;;;;;7.50;4.40;;;;;;;21.18;71.96;100304.79;104737;1269;95636;-73
2022/08/02 01:25:31;;;;;;;7.80;4.00;;;;;;;21.11;72.28;100301.04;104622;1268;109778;-74
2022/08/02 01:28:25;;;;;;;8.50;4.40;;;;;;;21.12;72.26;100301.51;104819;1269;99810;-74
2022/08/02 01:31:03;;;;;;;9.30;4.80;;;;;;;21.17;72.21;100301.45;104615;1270;138812;-74
2022/08/02 01:33:42;;;;;;;9.20;4.10;;;;;;;21.21;72.01;100300.45;104737;1268;95749;-74
2022/08/02 01:36:13;;;;;;;9.10;4.50;;;;;;;21.21;71.87;100302.09;104664;1269;138745;-73
2022/08/02 01:38:47;;;;;;;8.10;4.60;;;;;;;21.18;71.88;100302.65;104977;1267;109424;-74
2022/08/02 01:41:21;;;;;;;7.90;4.40;;;;;;;21.15;71.95;100302.15;104601;1267;139240;-74
2022/08/02 01:43:54;;;;;;;8.40;4.60;;;;;;;21.17;71.76;100305.62;105110;1265;109549;-74
2022/08/02 01:46:23;;;;;;;7.40;4.40;;;;;;;21.22;71.48;100307.09;104725;1267;95854;-74
2022/08/02 01:48:54;;;;;;;9.20;4.70;;;;;;;21.23;71.42;100307.59;104706;1268;139357;-75
2022/08/02 01:54:15;;;;;;;7.70;4.60;;;;;;;21.03;71.82;100309.14;104637;1267;138932;-74
2022/08/02 01:56:45;;;;;;;7.30;4.10;;;;;;;20.99;71.77;100310.71;104785;1267;108792;-74
2022/08/02 01:59:17;;;;;;;10.10;4.70;;;;;;;20.94;71.85;100307.10;104818;1267;139556;-74
2022/08/02 02:01:48;;;;;;;9.00;4.90;;;;;;;20.96;71.78;100311.66;104820;1267;95223;-74
2022/08/02 02:04:18;;;;;;;8.00;4.60;;;;;;;21.00;71.74;100314.95;104857;1266;110576;-73
2022/08/02 02:06:46;;;;;;;7.90;4.40;;;;;;;21.00;71.48;100312.27;104644;1270;139301;-75
2022/08/02 02:09:15;;;;;;;8.30;4.60;;;;;;;21.02;71.34;100313.56;104785;1267;109081;-74
2022/08/02 02:11:45;;;;;;;7.50;4.80;;;;;;;21.02;71.18;100314.67;104706;1267;141017;-74
2022/08/02 02:14:35;;;;;;;9.80;5.20;;;;;;;20.99;71.42;100313.97;104819;1267;95573;-74
2022/08/02 02:17:05;;;;;;;9.80;4.90;;;;;;;20.92;71.06;100309.05;104666;1268;139667;-74
2022/08/02 02:19:36;;;;;;;10.90;5.10;;;;;;;20.78;71.65;100311.29;104981;1267;98508;-74
2022/08/02 02:22:04;;;;;;;9.00;5.30;;;;;;;20.70;71.56;100314.03;104794;1267;107563;-74
2022/08/02 02:24:34;;;;;;;8.70;5.10;;;;;;;20.63;71.72;100314.83;104681;1267;141387;-74
2022/08/02 02:27:06;;;;;;;8.70;5.10;;;;;;;20.59;71.82;100317.67;104752;1267;95494;-74
2022/08/02 02:29:42;;;;;;;7.70;4.90;;;;;;;20.56;71.94;100322.67;104769;1268;138893;-74
2022/08/02 02:32:12;;;;;;;9.00;4.80;;;;;;;20.55;71.79;100323.14;104807;1268;99326;-72
2022/08/02 02:34:43;;;;;;;8.40;5.20;;;;;;;20.55;72.20;100322.42;104774;1267;109104;-75
2022/08/02 02:37:17;;;;;;;7.50;5.10;;;;;;;20.54;72.32;100324.84;104654;1270;138841;-75
2022/08/02 02:39:49;;;;;;;9.00;5.50;;;;;;;20.51;72.61;100316.52;104872;1268;96743;-76
2022/08/02 02:42:21;;;;;;;9.40;5.50;;;;;;;20.49;72.60;100319.56;104731;1270;138832;-75
2022/08/02 02:44:50;;;;;;;8.70;5.70;;;;;;;20.44;72.64;100314.71;104785;1270;98858;-74
2022/08/02 02:47:21;;;;;;;9.70;5.60;;;;;;;20.42;72.66;100320.80;104588;1270;139438;-74
2022/08/02 02:50:09;;;;;;;10.90;6.10;;;;;;;20.41;72.90;100316.50;104773;1268;95220;-75
2022/08/02 02:52:39;;;;;;;10.50;6.10;;;;;;;20.41;72.54;100316.75;104783;1270;95593;-75
2022/08/02 02:55:09;;;;;;;12.30;6.50;;;;;;;20.40;72.48;100318.61;104663;1270;139374;-75
2022/08/02 02:57:38;;;;;;;7.90;6.10;;;;;;;20.37;72.60;100314.13;104829;1268;99311;-74
2022/08/02 03:00:10;;;;;;;9.20;5.50;;;;;;;20.33;73.09;100313.95;104934;1269;138726;-74
2022/08/02 03:02:41;;;;;;;9.70;6.10;;;;;;;20.31;72.94;100310.35;104871;1270;95627;-74
2022/08/02 03:05:10;;;;;;;9.20;5.80;;;;;;;20.27;73.41;100310.61;104689;1270;138844;-75
2022/08/02 03:07:39;;;;;;;8.50;5.40;;;;;;;20.23;73.47;100309.65;105033;1269;108097;-74
2022/08/02 03:10:07;;;;;;;10.40;6.20;;;;;;;20.23;73.42;100309.68;104765;1270;99651;-75
2022/08/02 03:12:36;;;;;;;10.80;6.00;;;;;;;20.25;73.54;100310.64;104686;1270;139158;-74
2022/08/02 03:15:07;;;;;;;10.20;6.10;;;;;;;20.27;73.24;100310.44;104873;1271;95719;-74
2022/08/02 03:17:43;;;;;;;9.40;6.00;;;;;;;20.29;73.21;100311.73;104687;1270;139152;-75
2022/08/02 03:20:17;;;;;;;10.60;6.60;;;;;;;20.31;72.80;100314.67;104826;1268;108122;-75
2022/08/02 03:22:46;;;;;;;10.10;6.20;;;;;;;20.25;73.02;100314.52;104826;1268;99103;-75
2022/08/02 03:25:15;;;;;;;10.30;6.30;;;;;;;20.21;73.01;100318.94;104774;1268;139166;-74
2022/08/02 03:27:43;;;;;;;10.60;6.10;;;;;;;20.20;73.27;100321.01;105318;1268;95761;-75
2022/08/02 03:30:12;;;;;;;8.70;6.00;;;;;;;20.15;73.17;100326.73;104749;1271;139114;-74
2022/08/02 03:32:43;;;;;;;10.30;6.10;;;;;;;20.12;73.42;100333.23;104954;1268;109870;-74
2022/08/02 03:35:15;;;;;;;9.40;5.90;;;;;;;20.10;73.81;100330.33;104823;1268;139424;-75
2022/08/02 03:37:52;;;;;;;9.00;5.50;;;;;;;20.15;73.45;100331.79;104836;1268;109709;-75
2022/08/02 03:40:21;;;;;;;8.20;5.90;;;;;;;20.17;73.98;100329.88;105363;1268;95228;-74
2022/08/02 03:42:50;;;;;;;10.70;5.80;;;;;;;20.17;73.81;100329.52;104699;1268;138807;-74
2022/08/02 03:45:19;;;;;;;9.60;6.00;;;;;;;20.14;73.92;100327.89;104836;1270;109780;-75
2022/08/02 03:47:47;;;;;;;10.30;6.00;;;;;;;20.14;74.42;100327.23;104681;1268;139675;-75
2022/08/02 03:50:15;;;;;;;8.50;5.50;;;;;;;20.17;74.37;100332.04;104762;1268;108801;-75
2022/08/02 03:52:46;;;;;;;8.50;5.70;;;;;;;20.22;74.22;100333.85;104823;1268;95580;-74
2022/08/02 03:55:14;;;;;;;9.70;6.10;;;;;;;20.24;74.21;100340.96;104612;1270;138817;-74
2022/08/02 03:57:43;;;;;;;10.10;6.30;;;;;;;20.28;73.95;100340.50;104866;1268;110190;-75
2022/08/02 04:00:18;;;;;;;11.00;6.50;;;;;;;20.31;73.91;100344.61;104787;1268;139068;-74
2022/08/02 04:02:48;;;;;;;10.60;6.60;;;;;;;20.37;74.02;100341.33;104842;1268;108800;-75
2022/08/02 04:05:17;;;;;;;9.50;6.50;;;;;;;20.50;73.41;100347.80;104809;1268;139698;-75
2022/08/02 04:07:47;;;;;;;10.30;6.20;;;;;;;20.62;73.00;100355.12;104752;1271;95320;-75
2022/08/02 04:13:37;;;;;;;10.10;6.70;;;;;;;20.77;72.26;100356.27;104962;1268;99529;-75
2022/08/02 04:16:27;;;;;;;10.50;6.60;;;;;;;20.81;72.01;100356.93;104827;1268;109339;-74
2022/08/02 04:18:58;;;;;;;10.20;6.20;;;;;;;20.81;72.27;100354.00;104740;1268;139622;-74
2022/08/02 04:21:33;;;;;;;9.10;6.00;;;;;;;20.85;72.27;100357.87;104955;1268;95124;-75
2022/08/02 04:24:25;;;;;;;10.70;7.00;;;;;;;20.94;72.35;100360.19;104713;1268;139510;-74
2022/08/02 04:26:56;;;;;;;10.10;7.10;;;;;;;21.00;71.69;100360.79;104800;1268;98324;-75
2022/08/02 04:29:35;;;;;;;11.30;6.50;;;;;;;20.99;71.67;100362.48;104757;1268;140066;-75
2022/08/02 04:32:05;;;;;;;9.50;6.70;;;;;;;21.00;71.80;100366.63;104759;1271;95316;-75
2022/08/02 04:34:33;;;;;;;11.00;7.30;;;;;;;20.98;71.56;100368.56;104817;1268;95195;-76
2022/08/02 04:37:01;;;;;;;10.50;6.90;;;;;;;20.90;71.32;100367.48;104706;1268;139574;-75
2022/08/02 04:39:29;;;;;;;10.70;7.00;;;;;;;20.91;70.98;100366.87;104825;1268;99418;-74
2022/08/02 04:41:57;;;;;;;13.00;6.90;;;;;;;20.92;70.44;100371.70;104723;1268;138954;-74
2022/08/02 04:44:25;;;;;;;12.10;6.90;;;;;;;20.96;69.72;100374.48;104770;1268;95204;-74
2022/08/02 04:46:54;;;;;;;10.60;6.90;;;;;;;20.88;69.95;100381.52;104760;1268;95275;-75
2022/08/02 04:49:22;;;;;;;11.20;6.90;;;;;;;20.86;70.25;100382.40;105044;1268;109868;-76
2022/08/02 04:51:50;;;;;;;11.00;6.60;;;;;;;20.93;69.75;100383.66;104817;1268;98646;-75
2022/08/02 04:54:18;;;;;;;10.80;6.10;;;;;;;21.02;70.21;100387.23;104696;1268;139002;-75
2022/08/02 04:56:46;;;;;;;9.80;6.80;;;;;;;21.09;69.58;100392.52;104668;1269;95695;-75
2022/08/02 04:59:14;;;;;;;10.70;6.50;;;;;;;21.12;69.61;100394.67;104683;1268;138956;-75
2022/08/02 05:01:43;;;;;;;13.20;6.50;;;;;;;21.16;69.67;100396.48;104787;1268;109728;-74
2022/08/02 05:04:11;;;;;;;13.00;7.20;;;;;;;21.21;69.43;100396.90;104760;1268;99433;-74
2022/08/02 05:06:39;;;;;;;13.40;6.80;;;;;;;21.25;69.62;100402.37;104341;1272;139075;-75
2022/08/02 05:09:07;;;;;;;29.30;23.30;;;;;;;21.31;69.56;100404.13;104629;1271;95241;-70
2022/08/02 05:11:35;;;;;;;13.20;10.00;;;;;;;21.30;69.10;100409.80;104516;1271;139319;-75
2022/08/02 05:14:04;;;;;;;12.00;7.90;;;;;;;21.35;69.30;100412.34;104880;1268;108826;-75
2022/08/02 05:16:32;;;;;;;12.10;6.50;;;;;;;21.44;69.28;100418.95;104763;1268;99342;-75
2022/08/02 05:19:01;;;;;;;10.40;6.50;;;;;;;21.46;67.65;100420.92;104552;1271;138708;-74
2022/08/02 05:21:30;;;;;;;9.90;6.20;;;;;;;21.53;67.74;100422.65;104732;1268;95522;-75
2022/08/02 05:23:58;;;;;;;10.10;6.30;;;;;;;21.65;68.26;100423.58;104840;1268;139105;-75
2022/08/02 05:26:26;;;;;;;11.70;6.80;;;;;;;21.75;68.40;100426.09;104774;1268;109778;-75
2022/08/02 05:28:56;;;;;;;10.80;5.70;;;;;;;21.83;67.99;100428.80;104661;1268;139588;-74
2022/08/02 05:31:24;;;;;;;9.80;6.10;;;;;;;21.95;67.74;100428.45;104681;1268;108570;-75
2022/08/02 05:33:52;;;;;;;9.20;5.70;;;;;;;22.02;67.06;100427.20;104749;1268;95220;-74
2022/08/02 05:36:20;;;;;;;9.90;5.40;;;;;;;22.08;66.27;100429.90;104555;1268;139226;-75
2022/08/02 05:38:49;;;;;;;7.90;5.20;;;;;;;22.05;66.01;100430.80;104713;1268;109650;-74
2022/08/02 05:41:19;;;;;;;9.60;4.90;;;;;;;22.09;64.88;100435.01;104679;1268;139412;-74
2022/08/02 05:43:47;;;;;;;7.40;4.90;;;;;;;22.15;65.07;100430.60;104775;1268;108837;-74
2022/08/02 05:46:15;;;;;;;8.20;4.20;;;;;;;22.24;64.76;100432.87;104808;1268;95162;-75
2022/08/02 05:48:43;;;;;;;8.40;4.40;;;;;;;22.25;64.28;100437.30;104628;1268;139186;-74
2022/08/02 05:51:21;;;;;;;7.60;4.30;;;;;;;22.26;62.91;100434.72;104700;1268;109674;-75
2022/08/02 05:54:09;;;;;;;9.20;4.20;;;;;;;22.26;63.32;100433.60;104709;1268;138447;-75
2022/08/02 05:56:46;;;;;;;7.40;4.10;;;;;;;22.26;63.17;100433.77;104707;1268;108748;-75
2022/08/02 05:59:32;;;;;;;9.50;4.60;;;;;;;22.30;61.44;100434.38;104930;1268;139660;-74
2022/08/02 06:02:09;;;;;;;8.20;4.30;;;;;;;22.37;61.94;100438.73;104810;1268;95566;-75
2022/08/02 06:05:34;;;;;;;9.40;4.30;;;;;;;22.49;61.98;100439.30;104739;1268;110219;-76
2022/08/02 06:08:03;;;;;;;8.80;4.80;;;;;;;22.67;61.41;100447.02;104547;1271;99605;-75
2022/08/02 06:10:36;;;;;;;9.90;5.00;;;;;;;22.79;60.44;100441.76;104750;1268;108763;-75
2022/08/02 06:13:08;;;;;;;8.90;4.70;;;;;;;22.90;60.41;100440.69;104579;1268;138829;-74
2022/08/02 06:15:42;;;;;;;8.10;4.20;;;;;;;22.97;59.76;100438.52;104812;1268;95219;-75
2022/08/02 06:18:21;;;;;;;7.50;4.40;;;;;;;23.04;57.85;100443.63;104618;1268;138645;-75
2022/08/02 06:21:00;;;;;;;8.30;4.00;;;;;;;23.10;58.23;100440.23;104821;1268;99807;-75
2022/08/02 06:23:48;;;;;;;9.60;4.40;;;;;;;23.15;58.37;100441.48;104673;1268;138659;-75
2022/08/02 06:26:27;;;;;;;6.30;3.50;;;;;;;23.20;58.48;100442.58;104778;1268;95203;-74
2022/08/02 06:28:56;;;;;;;6.60;3.60;;;;;;;23.20;56.40;100443.13;104666;1268;138277;-74
2022/08/02 06:31:24;;;;;;;8.00;3.80;;;;;;;23.22;56.01;100441.88;104906;1268;106708;-77
2022/08/02 06:33:52;;;;;;;7.10;3.40;;;;;;;23.20;56.23;100445.45;104852;1268;98660;-74
2022/08/02 06:36:59;;;;;;;7.40;3.30;;;;;;;23.17;54.80;100448.64;104675;1268;138103;-74
2022/08/02 06:39:34;;;;;;;6.40;3.20;;;;;;;23.17;55.37;100454.23;104618;1268;95759;-74
2022/08/02 06:42:10;;;;;;;7.10;3.30;;;;;;;23.12;54.18;100459.14;104696;1268;138206;-74
2022/08/02 06:44:43;;;;;;;8.80;3.90;;;;;;;23.11;55.50;100462.44;104899;1270;109668;-73
2022/08/02 06:47:17;;;;;;;8.20;3.30;;;;;;;23.14;55.36;100467.48;104720;1268;138600;-74
2022/08/02 06:49:45;;;;;;;8.60;3.40;;;;;;;23.17;55.43;100463.10;105102;1268;109635;-75
2022/08/02 06:52:24;;;;;;;8.00;3.40;;;;;;;23.19;55.39;100465.84;104683;1268;95243;-74
2022/08/02 06:54:57;;;;;;;6.30;3.00;;;;;;;23.30;55.86;100465.39;104698;1268;139265;-73
2022/08/02 06:57:26;;;;;;;5.80;2.80;;;;;;;23.43;55.08;100466.34;104756;1268;108730;-74
2022/08/02 06:59:54;;;;;;;5.70;2.90;;;;;;;23.55;54.09;100466.63;104718;1268;138327;-74
2022/08/02 07:02:23;;;;;;;6.00;2.80;;;;;;;23.61;54.97;100471.06;105061;1268;108969;-74
2022/08/02 07:04:51;;;;;;;5.90;2.70;;;;;;;23.66;55.33;100471.98;104706;1270;95676;-75
2022/08/02 07:07:19;;;;;;;7.90;2.70;;;;;;;23.63;54.32;100474.35;104806;1268;95473;-75
2022/08/02 07:09:47;;;;;;;6.70;2.80;;;;;;;23.63;53.43;100468.38;104810;1268;109739;-75
2022/08/02 07:12:29;;;;;;;5.90;2.80;;;;;;;23.69;54.87;100473.90;104697;1268;138273;-75
2022/08/02 07:14:59;;;;;;;6.50;2.80;;;;;;;23.62;53.07;100473.38;105074;1268;108770;-74
2022/08/02 07:17:28;;;;;;;6.00;3.00;;;;;;;23.61;53.97;100481.09;104659;1268;139384;-75
2022/08/02 07:19:57;;;;;;;8.40;2.70;;;;;;;23.61;53.61;100481.22;104791;1268;96179;-75
2022/08/02 07:22:26;;;;;;;6.90;2.70;;;;;;;23.63;53.79;100483.27;104889;1268;109335;-75
2022/08/02 07:24:56;;;;;;;5.60;2.40;;;;;;;23.73;54.04;100486.39;104870;1268;138199;-73
2022/08/02 07:27:25;;;;;;;5.80;2.50;;;;;;;23.82;53.38;100487.32;104786;1267;108716;-75
2022/08/02 07:29:53;;;;;;;6.40;2.50;;;;;;;23.88;53.17;100483.75;104642;1268;138263;-75
2022/08/02 07:32:24;;;;;;;5.60;2.10;;;;;;;23.93;52.04;100483.25;104828;1268;95244;-74
2022/08/02 07:34:53;;;;;;;5.20;2.40;;;;;;;23.96;51.16;100481.94;104804;1267;110495;-75
2022/08/02 07:37:25;;;;;;;6.00;2.40;;;;;;;23.96;51.13;100483.53;105020;1267;99366;-74
2022/08/02 07:40:14;;;;;;;6.70;2.40;;;;;;;23.99;50.16;100483.28;104732;1268;109619;-74
2022/08/02 07:42:53;;;;;;;4.90;2.60;;;;;;;24.02;49.92;100484.10;104802;1268;138728;-73
2022/08/02 07:45:27;;;;;;;5.90;2.70;;;;;;;24.07;50.79;100483.49;104886;1267;96425;-74
2022/08/02 07:47:55;;;;;;;5.00;2.70;;;;;;;24.23;51.12;100485.17;104802;1268;138091;-75
2022/08/02 07:50:24;;;;;;;5.90;2.60;;;;;;;24.40;50.87;100487.77;104864;1268;99740;-75
2022/08/02 07:52:51;;;;;;;6.70;2.40;;;;;;;24.50;49.83;100485.60;104939;1268;108515;-75
2022/08/02 07:55:25;;;;;;;7.30;2.80;;;;;;;24.62;51.15;100484.13;104822;1268;95138;-75
2022/08/02 07:58:08;;;;;;;5.80;2.40;;;;;;;24.68;50.73;100483.39;104793;1268;95269;-75
2022/08/02 08:00:43;;;;;;;5.70;2.20;;;;;;;24.61;48.26;100482.36;104857;1267;138356;-75
2022/08/02 08:03:11;;;;;;;6.80;2.80;;;;;;;24.54;50.02;100483.05;104865;1268;97356;-75
2022/08/02 08:05:40;;;;;;;5.60;2.40;;;;;;;24.60;49.61;100479.05;104737;1267;138144;-76
2022/08/02 08:08:08;;;;;;;7.20;2.60;;;;;;;24.70;49.25;100480.55;104872;1268;95688;-73
2022/08/02 08:10:44;;;;;;;7.50;2.60;;;;;;;24.79;49.62;100482.11;104929;1268;95202;-74
2022/08/02 08:13:14;;;;;;;5.60;2.40;;;;;;;24.88;49.41;100486.64;104831;1268;138456;-74
2022/08/02 08:15:42;;;;;;;6.00;2.50;;;;;;;24.96;49.28;100487.38;104941;1268;98818;-74
2022/08/02 08:18:22;;;;;;;5.40;2.50;;;;;;;25.07;50.03;100488.34;104750;1268;138183;-74
2022/08/02 08:20:50;;;;;;;6.30;2.60;;;;;;;25.17;48.10;100485.80;104880;1268;95286;-75
2022/08/02 08:23:18;;;;;;;5.70;2.20;;;;;;;25.32;47.54;100483.84;105046;1268;140503;-74
2022/08/02 08:25:47;;;;;;;6.30;2.10;;;;;;;25.54;48.68;100484.09;104908;1268;109444;-75
2022/08/02 08:28:15;;;;;;;5.80;2.20;;;;;;;25.70;46.47;100485.38;104840;1268;99391;-75
2022/08/02 08:30:43;;;;;;;5.90;2.40;;;;;;;25.80;47.79;100487.04;104730;1268;138055;-75
2022/08/02 08:33:10;;;;;;;5.50;2.30;;;;;;;25.84;47.71;100491.44;104823;1268;95553;-75
2022/08/02 08:35:39;;;;;;;5.90;2.50;;;;;;;25.89;47.46;100492.84;104802;1267;138688;-75
2022/08/02 08:38:07;;;;;;;7.40;2.20;;;;;;;25.97;45.12;100490.12;104850;1267;108826;-74
2022/08/02 08:40:36;;;;;;;5.60;2.20;;;;;;;26.04;45.60;100490.77;104903;1267;100322;-74
2022/08/02 08:43:04;;;;;;;6.40;2.20;;;;;;;26.17;45.37;100491.77;104724;1268;138249;-74
2022/08/02 08:45:32;;;;;;;5.10;2.50;;;;;;;26.24;45.33;100486.48;104810;1268;97061;-73
2022/08/02 08:48:06;;;;;;;5.20;2.10;;;;;;;26.30;45.99;100489.85;104840;1267;138732;-74
2022/08/02 08:50:38;;;;;;;6.00;2.20;;;;;;;26.45;45.52;100493.20;104867;1268;110316;-74
2022/08/02 08:53:08;;;;;;;6.40;1.90;;;;;;;26.58;46.04;100495.69;104670;1268;138598;-74
2022/08/02 08:55:39;;;;;;;5.40;2.20;;;;;;;26.64;45.49;100493.83;104890;1267;109502;-72
2022/08/02 08:58:07;;;;;;;5.80;2.10;;;;;;;26.68;43.34;100494.75;104893;1268;95246;-74
2022/08/02 09:00:35;;;;;;;5.20;2.00;;;;;;;26.67;43.22;100498.48;104745;1268;138655;-74
2022/08/02 09:03:05;;;;;;;6.40;2.30;;;;;;;26.70;43.53;100500.20;104873;1268;109674;-75
2022/08/02 09:05:35;;;;;;;5.10;2.30;;;;;;;26.76;43.22;100493.20;104664;1268;138485;-72
2022/08/02 09:08:03;;;;;;;5.30;2.30;;;;;;;26.94;43.06;100490.39;104951;1268;110131;-73
2022/08/02 09:10:34;;;;;;;5.50;2.30;;;;;;;27.26;42.74;100493.77;105030;1268;96297;-74
2022/08/02 09:13:29;;;;;;;5.00;2.30;;;;;;;27.50;42.53;100491.49;104770;1268;138678;-74
2022/08/02 09:16:12;;;;;;;4.80;2.50;;;;;;;27.71;40.80;100492.89;104856;1268;109716;-73
2022/08/02 09:18:43;;;;;;;7.70;2.60;;;;;;;27.84;41.49;100492.63;104847;1268;138898;-74
2022/08/02 09:21:14;;;;;;;5.40;2.40;;;;;;;28.13;40.47;100491.07;105045;1267;109625;-74
2022/08/02 09:23:51;;;;;;;6.30;2.50;;;;;;;28.22;41.44;100494.59;105349;1268;138318;-74
2022/08/02 09:26:22;;;;;;;6.00;2.40;;;;;;;28.29;41.29;100503.02;104889;1268;95657;-74
2022/08/02 09:28:51;;;;;;;5.50;2.50;;;;;;;28.47;40.61;100505.05;105074;1268;110507;-74
2022/08/02 09:31:22;;;;;;;5.40;2.30;;;;;;;28.56;39.98;100505.21;104932;1268;99554;-74
2022/08/02 09:33:57;;;;;;;5.20;2.60;;;;;;;28.80;39.63;100506.13;105007;1268;107844;-74
2022/08/02 09:36:35;;;;;;;5.60;2.50;;;;;;;29.52;37.95;100504.40;104749;1267;138202;-74
2022/08/02 09:39:07;;;;;;;7.90;2.30;;;;;;;30.06;38.57;100502.20;104949;1267;95243;-74
2022/08/02 09:41:39;;;;;;;5.90;2.20;;;;;;;30.68;37.62;100499.04;104781;1267;138262;-73
2022/08/02 09:44:10;;;;;;;5.60;2.60;;;;;;;30.89;36.62;100505.30;104885;1267;98254;-74
2022/08/02 09:46:45;;;;;;;5.90;2.10;;;;;;;31.04;37.15;100505.17;104896;1267;108627;-74
2022/08/02 09:49:16;;;;;;;7.30;2.50;;;;;;;31.44;35.83;100504.51;104763;1267;138104;-75
2022/08/02 09:51:44;;;;;;;7.10;2.30;;;;;;;32.28;35.62;100506.54;104865;1267;95854;-74
2022/08/02 09:54:35;;;;;;;5.00;2.20;;;;;;;33.17;33.84;100506.34;104724;1267;138058;-73
2022/08/02 09:57:03;;;;;;;4.10;2.00;;;;;;;34.43;31.26;100500.80;104819;1267;99407;-74
2022/08/02 09:59:31;;;;;;;6.20;2.60;;;;;;;35.48;30.12;100504.88;104702;1267;138669;-73
2022/08/02 10:02:07;;;;;;;5.80;2.10;;;;;;;36.44;28.79;100504.95;104914;1267;95156;-74
2022/08/02 10:04:43;;;;;;;7.50;2.30;;;;;;;37.31;27.27;100508.15;104956;1267;95211;-76
2022/08/02 10:07:22;;;;;;;5.90;2.10;;;;;;;38.14;27.08;100505.86;104968;1267;109711;-74
2022/08/02 10:09:52;;;;;;;5.80;1.90;;;;;;;38.81;25.95;100503.00;104946;1267;98719;-75
2022/08/02 10:12:21;;;;;;;5.00;1.80;;;;;;;39.12;25.97;100502.41;104699;1267;138509;-74
2022/08/02 10:14:50;;;;;;;6.80;1.80;;;;;;;37.98;25.84;100506.75;104852;1267;96384;-74
2022/08/02 10:17:19;;;;;;;5.10;2.00;;;;;;;36.89;26.57;100503.83;104744;1267;138336;-74
2022/08/02 10:19:48;;;;;;;4.90;1.80;;;;;;;36.33;26.28;100499.19;104871;1267;109727;-75
2022/08/02 10:22:28;;;;;;;6.20;2.00;;;;;;;35.36;27.27;100505.41;104917;1267;99192;-75
2022/08/02 10:24:57;;;;;;;6.90;2.20;;;;;;;34.57;28.46;100508.39;104878;1267;137904;-74
2022/08/02 10:27:28;;;;;;;8.20;2.20;;;;;;;33.97;29.48;100507.96;104969;1267;95840;-75
2022/08/02 10:30:17;;;;;;;4.70;1.90;;;;;;;34.41;31.07;100508.99;104898;1267;138082;-74
2022/08/02 10:32:46;;;;;;;6.10;2.00;;;;;;;35.58;28.95;100502.89;104870;1268;109743;-75
2022/08/02 10:35:21;;;;;;;6.50;2.10;;;;;;;36.58;27.77;100501.75;105107;1267;138515;-75
2022/08/02 10:38:02;;;;;;;5.20;2.00;;;;;;;36.66;26.73;100500.45;104893;1268;108727;-73
2022/08/02 10:40:51;;;;;;;5.10;2.00;;;;;;;36.42;26.27;100503.73;104900;1268;95795;-74
2022/08/02 10:43:35;;;;;;;6.20;1.90;;;;;;;36.88;26.14;100506.27;105521;1270;95768;-74
2022/08/02 10:46:21;;;;;;;5.50;1.90;;;;;;;37.10;25.69;100507.49;104931;1267;109743;-75
2022/08/02 10:49:17;;;;;;;4.90;1.70;;;;;;;37.48;25.64;100506.42;104569;1268;138625;-75
2022/08/02 10:52:06;;;;;;;5.40;2.00;;;;;;;37.62;25.26;100503.42;104877;1268;108942;-75
2022/08/02 10:54:43;;;;;;;6.10;1.90;;;;;;;36.64;26.42;100500.61;104814;1268;138255;-75
2022/08/02 10:57:23;;;;;;;6.00;1.80;;;;;;;35.77;27.63;100499.70;105168;1268;95153;-75
2022/08/02 11:00:12;;;;;;;5.60;2.00;;;;;;;34.85;28.36;100498.64;105232;1270;138335;-75
2022/08/02 11:02:46;;;;;;;5.00;2.10;;;;;;;33.99;29.12;100498.72;104858;1268;99908;-75
2022/08/02 11:05:30;;;;;;;5.20;2.00;;;;;;;33.40;30.22;100503.21;104721;1268;138269;-75
2022/08/02 11:08:21;;;;;;;4.90;2.10;;;;;;;32.86;31.42;100497.27;104891;1268;95237;-75
2022/08/02 11:10:49;;;;;;;6.60;2.30;;;;;;;32.43;31.74;100497.98;105059;1268;95128;-76
2022/08/02 11:13:20;;;;;;;6.10;2.40;;;;;;;31.92;32.67;100496.00;104913;1268;137981;-74
2022/08/02 11:15:55;;;;;;;5.90;2.20;;;;;;;31.63;33.29;100493.92;104986;1269;98640;-73
2022/08/02 11:18:49;;;;;;;5.30;2.40;;;;;;;31.51;33.85;100497.06;104718;1268;138593;-75
2022/08/02 11:21:28;;;;;;;4.90;2.40;;;;;;;31.38;34.00;100501.17;104731;1268;95155;-74
2022/08/02 11:24:27;;;;;;;5.70;2.50;;;;;;;31.22;34.14;100498.20;104753;1268;139513;-74
2022/08/02 11:26:56;;;;;;;6.20;2.70;;;;;;;30.87;35.34;100497.84;104772;1270;109731;-74
2022/08/02 11:29:43;;;;;;;5.50;2.70;;;;;;;30.50;35.11;100495.34;104753;1268;138520;-73
2022/08/02 11:32:19;;;;;;;8.40;3.10;;;;;;;30.02;35.26;100495.89;104947;1268;108842;-74
2022/08/02 11:34:50;;;;;;;7.20;2.80;;;;;;;29.79;36.73;100497.19;104900;1268;95304;-73
2022/08/02 11:37:34;;;;;;;5.80;2.60;;;;;;;29.66;37.47;100500.92;105059;1268;95639;-73
2022/08/02 11:40:04;;;;;;;6.90;2.40;;;;;;;29.51;37.01;100508.17;104861;1268;109825;-74
2022/08/02 11:42:43;;;;;;;7.90;2.80;;;;;;;29.50;37.33;100502.91;104809;1268;138350;-75